createdAt,value
2022-11-18T00:00:20.329Z,5.40
2022-11-18T00:03:25.715Z,3.63
2022-11-18T00:06:32.427Z,4.00
2022-11-18T00:09:40.203Z,3.90
2022-11-18T00:12:57.860Z,4.00
2022-11-18T00:16:03.588Z,4.07
2022-11-18T00:19:08.979Z,3.90
2022-11-18T00:22:16.115Z,4.10
2022-11-18T00:25:23.968Z,4.00
2022-11-18T00:28:29.122Z,3.80
2022-11-18T00:31:34.460Z,4.00
2022-11-18T00:34:39.655Z,3.60
2022-11-18T00:37:44.952Z,3.95
2022-11-18T00:40:52.823Z,4.32
2022-11-18T00:43:55.439Z,4.53
2022-11-18T00:47:00.642Z,3.92
2022-11-18T00:50:05.751Z,3.72
2022-11-18T00:53:10.785Z,4.60
2022-11-18T00:56:18.625Z,4.20
2022-11-18T00:59:24.086Z,3.75
2022-11-18T01:02:29.168Z,4.13
2022-11-18T01:05:34.490Z,4.35
2022-11-18T01:08:39.482Z,3.67
2022-11-18T01:11:59.442Z,4.38
2022-11-18T01:15:04.611Z,4.03
2022-11-18T01:18:09.695Z,4.50
2022-11-18T01:21:15.152Z,3.80
2022-11-18T01:24:20.310Z,3.80
2022-11-18T01:27:28.377Z,4.03
2022-11-18T01:30:35.810Z,4.15
2022-11-18T01:33:41.008Z,2.87
2022-11-18T01:36:46.015Z,4.10
2022-11-18T01:39:51.433Z,3.70
2022-11-18T01:42:59.317Z,4.22
2022-11-18T01:46:04.526Z,3.55
2022-11-18T01:49:10.699Z,3.80
2022-11-18T01:52:16.785Z,3.90
2022-11-18T01:55:24.841Z,4.10
2022-11-18T01:58:34.152Z,3.97
2022-11-18T02:01:40.015Z,3.85
2022-11-18T02:04:47.577Z,4.22
2022-11-18T02:07:53.095Z,3.50
2022-11-18T02:10:58.425Z,3.72
2022-11-18T02:14:07.882Z,3.47
2022-11-18T02:17:17.709Z,3.95
2022-11-18T02:20:33.571Z,3.47
2022-11-18T02:23:58.604Z,4.00
2022-11-18T02:27:22.948Z,4.63
2022-11-18T02:30:33.162Z,4.45
2022-11-18T02:33:41.752Z,3.90
2022-11-18T02:36:50.423Z,3.97
2022-11-18T02:39:57.894Z,3.40
2022-11-18T02:43:05.333Z,4.32
2022-11-18T02:46:14.607Z,3.87
2022-11-18T02:49:23.438Z,4.32
2022-11-18T02:52:29.976Z,3.90
2022-11-18T02:55:37.456Z,3.67
2022-11-18T02:58:42.865Z,3.97
2022-11-18T03:01:51.439Z,4.40
2022-11-18T03:04:58.664Z,3.60
2022-11-18T03:08:06.801Z,4.17
2022-11-18T03:11:16.260Z,3.53
2022-11-18T03:14:26.317Z,3.63
2022-11-18T03:17:41.716Z,3.72
2022-11-18T03:20:50.758Z,3.45
2022-11-18T03:23:59.357Z,3.28
2022-11-18T03:27:08.155Z,4.03
2022-11-18T03:30:15.565Z,3.97
2022-11-18T03:33:24.753Z,3.80
2022-11-18T03:36:32.977Z,3.90
2022-11-18T03:39:39.855Z,3.85
2022-11-18T03:42:47.063Z,3.33
2022-11-18T03:45:53.762Z,3.50
2022-11-18T03:49:02.274Z,4.07
2022-11-18T03:52:10.492Z,3.85
2022-11-18T03:55:18.165Z,3.65
2022-11-18T03:58:26.981Z,3.60
2022-11-18T04:01:35.568Z,3.45
2022-11-18T04:04:43.619Z,3.60
2022-11-18T04:07:54.092Z,3.83
2022-11-18T04:11:03.145Z,3.38
2022-11-18T04:14:10.118Z,3.63
2022-11-18T04:17:16.370Z,4.10
2022-11-18T04:20:25.125Z,4.38
2022-11-18T04:23:30.384Z,3.60
2022-11-18T04:26:35.436Z,3.53
2022-11-18T04:29:40.669Z,4.10
2022-11-18T04:32:45.872Z,3.90
2022-11-18T04:35:53.884Z,3.80
2022-11-18T04:38:58.861Z,3.78
2022-11-18T04:42:04.014Z,3.88
2022-11-18T04:45:10.072Z,3.78
2022-11-18T04:48:15.462Z,3.63
2022-11-18T04:51:23.054Z,3.95
2022-11-18T04:54:29.032Z,2.90
2022-11-18T04:57:34.211Z,3.90
2022-11-18T05:00:39.660Z,2.75
2022-11-18T05:03:49.334Z,3.22
2022-11-18T05:06:58.514Z,3.85
2022-11-18T05:10:03.861Z,3.83
2022-11-18T05:13:06.294Z,3.50
2022-11-18T05:16:11.527Z,3.92
2022-11-18T05:19:16.754Z,3.60
2022-11-18T05:22:24.964Z,3.33
2022-11-18T05:25:30.119Z,3.40
2022-11-18T05:28:35.452Z,3.90
2022-11-18T05:31:40.688Z,3.53
2022-11-18T05:34:46.346Z,3.72
2022-11-18T05:37:54.196Z,3.65
2022-11-18T05:40:59.506Z,3.85
2022-11-18T05:44:02.117Z,3.35
2022-11-18T05:47:07.690Z,3.15
2022-11-18T05:50:16.068Z,3.38
2022-11-18T05:53:26.226Z,3.58
2022-11-18T05:56:32.078Z,3.80
2022-11-18T05:59:37.263Z,3.70
2022-11-18T06:02:44.511Z,3.97
2022-11-18T06:05:50.253Z,3.50
2022-11-18T06:09:00.079Z,3.85
2022-11-18T06:12:06.757Z,4.07
2022-11-18T06:15:15.043Z,3.67
2022-11-18T06:18:21.854Z,3.65
2022-11-18T06:21:27.643Z,4.32
2022-11-18T06:24:35.618Z,3.95
2022-11-18T06:27:40.786Z,3.65
2022-11-18T06:30:46.213Z,3.80
2022-11-18T06:34:00.155Z,4.05
2022-11-18T06:37:15.427Z,3.60
2022-11-18T06:40:23.330Z,3.53
2022-11-18T06:43:44.496Z,4.32
2022-11-18T06:47:02.737Z,3.45
2022-11-18T06:53:12.892Z,5.97
2022-11-18T06:56:21.366Z,3.67
2022-11-18T07:02:31.715Z,3.97
2022-11-18T07:05:36.901Z,3.85
2022-11-18T07:08:42.665Z,3.90
2022-11-18T07:11:50.538Z,3.65
2022-11-18T07:14:55.838Z,4.30
2022-11-18T07:18:01.196Z,3.67
2022-11-18T07:21:06.743Z,3.58
2022-11-18T07:24:12.660Z,3.88
2022-11-18T07:27:20.565Z,4.00
2022-11-18T07:30:25.975Z,4.50
2022-11-18T07:33:31.066Z,4.32
2022-11-18T07:36:36.637Z,3.97
2022-11-18T07:39:41.851Z,4.18
2022-11-18T07:42:49.986Z,4.47
2022-11-18T07:46:12.048Z,4.40
2022-11-18T07:49:17.616Z,4.18
2022-11-18T07:52:22.812Z,3.90
2022-11-18T07:55:31.988Z,4.57
2022-11-18T07:58:40.332Z,5.25
2022-11-18T08:01:45.554Z,4.55
2022-11-18T08:04:50.768Z,3.80
2022-11-18T08:07:56.007Z,4.03
2022-11-18T08:11:02.412Z,3.90
2022-11-18T08:14:10.485Z,4.22
2022-11-18T08:17:15.701Z,5.05
2022-11-18T08:20:20.941Z,4.53
2022-11-18T08:23:32.425Z,4.65
2022-11-18T08:26:39.413Z,3.95
2022-11-18T08:29:47.342Z,3.95
2022-11-18T08:32:52.467Z,4.03
2022-11-18T08:35:57.774Z,4.70
2022-11-18T08:39:04.043Z,3.97
2022-11-18T08:42:09.347Z,4.57
2022-11-18T08:45:17.022Z,4.18
2022-11-18T08:48:22.267Z,3.53
2022-11-18T08:51:27.899Z,4.28
2022-11-18T08:54:33.165Z,4.13
2022-11-18T08:57:38.296Z,4.30
2022-11-18T09:00:46.170Z,4.18
2022-11-18T09:03:52.336Z,4.25
2022-11-18T09:06:57.492Z,4.40
2022-11-18T09:10:02.900Z,4.65
2022-11-18T09:13:38.680Z,3.97
2022-11-18T09:16:37.604Z,4.53
2022-11-18T09:19:47.807Z,3.97
2022-11-18T09:22:53.501Z,4.07
2022-11-18T09:26:00.719Z,5.18
2022-11-18T09:29:05.896Z,5.18
2022-11-18T09:32:13.522Z,4.70
2022-11-18T09:35:18.804Z,4.85
2022-11-18T09:38:24.074Z,4.57
2022-11-18T09:41:39.079Z,4.10
2022-11-18T09:44:51.658Z,5.30
2022-11-18T09:48:02.005Z,4.43
2022-11-18T09:51:08.474Z,4.72
2022-11-18T09:54:15.632Z,4.78
2022-11-18T09:57:23.660Z,4.40
2022-11-18T10:00:30.458Z,4.40
2022-11-18T10:03:38.202Z,3.97
2022-11-18T10:06:43.369Z,4.82
2022-11-18T10:09:48.887Z,4.65
2022-11-18T10:12:59.128Z,3.72
2022-11-18T10:16:11.148Z,4.97
2022-11-18T10:19:25.480Z,4.95
2022-11-18T10:22:33.728Z,4.90
2022-11-18T10:25:38.849Z,4.43
2022-11-18T10:28:43.880Z,4.63
2022-11-18T10:31:59.754Z,4.70
2022-11-18T10:35:25.712Z,4.65
2022-11-18T10:38:30.949Z,4.72
2022-11-18T10:41:41.435Z,4.90
2022-11-18T10:44:46.786Z,4.20
2022-11-18T10:48:00.353Z,4.28
2022-11-18T10:51:22.947Z,3.88
2022-11-18T10:54:28.349Z,4.07
2022-11-18T10:57:37.104Z,4.05
2022-11-18T11:00:50.143Z,5.20
2022-11-18T11:04:03.105Z,4.28
2022-11-18T11:07:21.003Z,4.60
2022-11-18T11:10:26.529Z,4.47
2022-11-18T11:13:33.350Z,4.68
2022-11-18T11:16:42.596Z,4.95
2022-11-18T11:19:52.434Z,4.60
2022-11-18T11:23:00.844Z,4.28
2022-11-18T11:29:41.073Z,5.50
2022-11-18T11:32:58.389Z,4.60
2022-11-18T11:36:07.128Z,4.88
2022-11-18T11:39:26.070Z,4.43
2022-11-18T11:42:38.377Z,4.45
2022-11-18T11:45:48.102Z,4.57
2022-11-18T11:48:59.605Z,4.05
2022-11-18T11:52:08.702Z,5.00
2022-11-18T11:55:21.679Z,4.63
2022-11-18T11:58:33.169Z,5.20
2022-11-18T12:01:40.669Z,4.68
2022-11-18T12:04:47.548Z,4.83
2022-11-18T12:07:54.986Z,4.32
2022-11-18T12:11:06.771Z,4.78
2022-11-18T12:14:16.349Z,4.75
2022-11-18T12:17:25.613Z,4.93
2022-11-18T12:20:48.130Z,4.38
2022-11-18T12:24:16.735Z,4.53
2022-11-18T12:27:36.664Z,4.65
2022-11-18T12:30:44.525Z,4.43
2022-11-18T12:33:50.706Z,4.68
2022-11-18T12:36:56.364Z,4.22
2022-11-18T12:40:02.890Z,4.88
2022-11-18T12:43:21.347Z,4.30
2022-11-18T12:46:45.586Z,4.13
2022-11-18T12:50:14.504Z,4.25
2022-11-18T12:53:35.334Z,4.57
2022-11-18T12:56:40.465Z,4.50
2022-11-18T12:59:45.786Z,4.53
2022-11-18T13:02:54.708Z,4.63
2022-11-18T13:06:04.782Z,4.55
2022-11-18T13:09:18.808Z,4.90
2022-11-18T13:12:29.757Z,4.47
2022-11-18T13:15:47.256Z,4.82
2022-11-18T13:18:53.367Z,4.45
2022-11-18T13:22:11.638Z,4.60
2022-11-18T13:28:28.761Z,4.93
2022-11-18T13:31:37.493Z,4.45
2022-11-18T13:34:45.690Z,4.53
2022-11-18T13:37:55.017Z,4.70
2022-11-18T13:41:14.161Z,5.18
2022-11-18T13:44:30.112Z,4.10
2022-11-18T13:47:38.851Z,5.15
2022-11-18T13:50:44.608Z,4.68
2022-11-18T13:53:50.638Z,5.63
2022-11-18T13:56:56.345Z,4.97
2022-11-18T14:00:07.494Z,4.53
2022-11-18T14:03:22.116Z,4.38
2022-11-18T14:06:28.125Z,4.53
2022-11-18T14:09:34.040Z,4.38
2022-11-18T14:16:02.218Z,5.10
2022-11-18T14:19:07.499Z,4.20
2022-11-18T14:22:16.364Z,4.50
2022-11-18T14:25:23.104Z,5.15
2022-11-18T14:28:30.377Z,4.30
2022-11-18T14:31:38.261Z,4.90
2022-11-18T14:34:43.518Z,4.75
2022-11-18T14:37:48.828Z,4.88
2022-11-18T14:40:57.395Z,4.75
2022-11-18T14:44:02.808Z,4.57
2022-11-18T14:47:16.748Z,4.82
2022-11-18T14:50:21.978Z,4.10
2022-11-18T14:53:27.080Z,5.25
2022-11-18T14:56:33.327Z,4.70
2022-11-18T14:59:38.511Z,4.93
2022-11-18T15:02:46.419Z,4.38
2022-11-18T15:05:51.598Z,5.07
2022-11-18T15:08:56.968Z,4.75
2022-11-18T15:12:03.898Z,4.80
2022-11-18T15:15:10.482Z,5.30
2022-11-18T15:18:18.105Z,4.18
2022-11-18T15:21:23.389Z,4.57
2022-11-18T15:24:28.767Z,5.40
2022-11-18T15:27:34.510Z,4.15
2022-11-18T15:30:39.724Z,4.53
2022-11-18T15:33:48.948Z,4.18
2022-11-18T15:36:54.208Z,3.90
2022-11-18T15:40:00.046Z,4.05
2022-11-18T15:43:05.269Z,3.63
2022-11-18T15:46:10.626Z,3.85
2022-11-18T15:49:18.590Z,3.65
2022-11-18T15:52:23.748Z,3.80
2022-11-18T15:55:28.800Z,4.45
2022-11-18T15:58:36.092Z,3.83
2022-11-18T16:01:42.337Z,4.33
2022-11-18T16:04:50.217Z,4.25
2022-11-18T16:07:55.320Z,3.85
2022-11-18T16:11:13.420Z,4.10
2022-11-18T16:14:19.551Z,3.80
2022-11-18T16:17:25.333Z,4.32
2022-11-18T16:20:33.182Z,4.30
2022-11-18T16:23:38.423Z,4.75
2022-11-18T16:26:43.442Z,4.60
2022-11-18T16:29:48.627Z,4.28
2022-11-18T16:32:54.820Z,4.38
2022-11-18T16:36:03.306Z,4.45
2022-11-18T16:42:14.541Z,4.60
2022-11-18T16:45:20.448Z,4.70
2022-11-18T16:48:25.766Z,5.28
2022-11-18T16:51:34.440Z,6.07
2022-11-18T16:54:44.790Z,5.40
2022-11-18T16:57:50.712Z,5.18
2022-11-18T17:01:22.123Z,5.47
2022-11-18T17:04:21.729Z,4.82
2022-11-18T17:07:33.927Z,5.10
2022-11-18T17:10:42.149Z,4.90
2022-11-18T17:13:48.792Z,5.18
2022-11-18T17:16:55.550Z,5.13
2022-11-18T17:20:00.866Z,4.88
2022-11-18T17:23:08.709Z,5.10
2022-11-18T17:26:15.196Z,4.78
2022-11-18T17:29:20.979Z,4.95
2022-11-18T17:32:26.595Z,5.25
2022-11-18T17:35:31.622Z,4.63
2022-11-18T17:38:40.014Z,5.93
2022-11-18T17:41:57.290Z,4.93
2022-11-18T17:45:02.292Z,5.50
2022-11-18T17:48:09.394Z,5.55
2022-11-18T17:51:14.479Z,5.40
2022-11-18T17:54:22.527Z,4.90
2022-11-18T17:57:27.821Z,4.68
2022-11-18T18:00:33.560Z,5.28
2022-11-18T18:03:38.842Z,5.47
2022-11-18T18:06:44.280Z,5.75
2022-11-18T18:09:51.895Z,5.38
2022-11-18T18:13:09.454Z,5.57
2022-11-18T18:16:14.720Z,5.13
2022-11-18T18:19:21.784Z,6.10
2022-11-18T18:22:27.363Z,6.05
2022-11-18T18:25:36.438Z,5.38
2022-11-18T18:28:41.977Z,5.25
2022-11-18T18:31:47.157Z,5.45
2022-11-18T18:34:52.244Z,5.55
2022-11-18T18:37:58.823Z,5.32
2022-11-18T18:41:09.349Z,5.78
2022-11-18T18:44:18.618Z,6.03
2022-11-18T18:47:21.480Z,5.45
2022-11-18T18:50:29.641Z,5.10
2022-11-18T18:53:37.929Z,5.90
2022-11-18T18:56:45.739Z,5.45
2022-11-18T18:59:51.240Z,6.05
2022-11-18T19:02:57.099Z,6.85
2022-11-18T19:06:34.610Z,5.70
2022-11-18T19:09:27.955Z,6.18
2022-11-18T19:12:52.486Z,6.30
2022-11-18T19:15:57.573Z,6.32
2022-11-18T19:19:02.880Z,6.22
2022-11-18T19:22:07.897Z,6.03
2022-11-18T19:25:13.338Z,6.22
2022-11-18T19:28:20.981Z,6.47
2022-11-18T19:31:26.090Z,6.30
2022-11-18T19:34:31.122Z,6.07
2022-11-18T19:37:36.752Z,7.05
2022-11-18T19:40:41.901Z,7.15
2022-11-18T19:43:49.599Z,6.97
2022-11-18T19:46:54.698Z,6.20
2022-11-18T19:50:00.006Z,6.20
2022-11-18T19:53:25.298Z,6.35
2022-11-18T19:56:30.560Z,5.75
2022-11-18T19:59:38.436Z,5.85
2022-11-18T20:02:43.694Z,6.60
2022-11-18T20:05:54.984Z,6.75
2022-11-18T20:09:00.566Z,6.32
2022-11-18T20:12:06.067Z,6.03
2022-11-18T20:15:14.291Z,6.38
2022-11-18T20:21:27.955Z,5.97
2022-11-18T20:24:33.179Z,6.43
2022-11-18T20:27:38.484Z,6.80
2022-11-18T20:30:48.277Z,6.93
2022-11-18T20:33:54.198Z,7.28
2022-11-18T20:36:59.536Z,6.00
2022-11-18T20:40:04.784Z,6.05
2022-11-18T20:43:15.958Z,6.10
2022-11-18T20:46:24.309Z,6.40
2022-11-18T20:49:29.816Z,6.30
2022-11-18T20:52:36.264Z,6.20
2022-11-18T20:55:41.601Z,6.18
2022-11-18T20:58:47.127Z,6.40
2022-11-18T21:01:55.058Z,6.70
2022-11-18T21:05:00.341Z,7.15
2022-11-18T21:08:06.233Z,7.47
2022-11-18T21:11:12.153Z,7.30
2022-11-18T21:14:24.875Z,7.07
2022-11-18T21:17:32.976Z,5.78
2022-11-18T21:20:50.904Z,6.43
2022-11-18T21:23:56.687Z,5.85
2022-11-18T21:27:02.565Z,7.28
2022-11-18T21:30:08.392Z,7.53
2022-11-18T21:41:19.579Z,9.50
2022-11-18T21:48:35.835Z,7.00
2022-11-18T21:51:59.713Z,7.18
2022-11-18T22:06:48.109Z,6.97
2022-11-18T22:17:57.436Z,7.03
2022-11-18T22:32:48.290Z,14.88
2022-11-18T22:36:13.693Z,20.95
2022-11-18T22:39:52.873Z,18.73
2022-11-18T22:58:31.688Z,13.68
2022-11-18T23:01:37.404Z,11.32
2022-11-18T23:04:43.000Z,10.65
2022-11-18T23:07:48.192Z,10.77
2022-11-18T23:10:53.465Z,9.88
2022-11-18T23:14:04.046Z,10.20
2022-11-18T23:17:09.422Z,9.20
2022-11-18T23:20:14.891Z,8.45
2022-11-18T23:23:19.980Z,9.70
2022-11-18T23:26:25.301Z,8.70
2022-11-18T23:29:33.137Z,9.05
2022-11-18T23:32:38.162Z,8.70
2022-11-18T23:35:43.405Z,7.03
2022-11-18T23:38:48.945Z,8.15
2022-11-18T23:41:54.461Z,7.70
2022-11-18T23:45:05.200Z,7.95
2022-11-18T23:48:10.636Z,7.07
2022-11-18T23:51:16.341Z,7.20
2022-11-18T23:54:21.743Z,6.78
2022-11-18T23:57:26.916Z,7.07
